Weather reports worldwide

Advertisment
Sotillo de la Adrada, Spain (8208): temperature & dewpoint: 19.08.2019 07:00:00 - 25.08.2019 07:00:00 (CEST)Sotillo de la Adrada, Spain (8208): wind speed & gusts: 19.08.2019 07:00:00 - 25.08.2019 07:00:00 (CEST)Sotillo de la Adrada, Spain (8208): wind direction: 19.08.2019 07:00:00 - 25.08.2019 07:00:00 (CEST)Sotillo de la Adrada, Spain (8208): precipitation: 19.08.2019 07:00:00 - 25.08.2019 07:00:00 (CEST)
Date & Time tt [°C] td [°C] ff [km/h] ff [kn] fx [km/h] fx [kn] dd rr [mm]
25.08.2019 07:00:00 24,3 11,6 14 8 33 18 ENE 0,0
25.08.2019 06:00:00 24,5 10,4 13 7 29 16 NE 0,0
25.08.2019 05:00:00 24,9 8,4 15 8 27 15 NE 0,0
25.08.2019 04:00:00 25,4 7,6 13 7 25 13 ENE 0,0
25.08.2019 03:00:00 22,9 6,2 4 2 16 9 E 0,0
25.08.2019 02:00:00 22,4 6,2 3 1 6 4 NNE -
25.08.2019 01:00:00 23,2 6,1 1 1 4 2 WNW 0,0
25.08.2019 00:00:00 24,1 5,9 3 2 5 3 NNW 0,0
24.08.2019 23:00:00 25,5 5,6 1 0 7 4 NW 0,0
24.08.2019 22:00:00 28,5 6,5 5 3 9 5 NNW 0,0
24.08.2019 21:00:00 30,9 6,7 1 0 16 9 SW 0,0
24.08.2019 20:00:00 33,2 7,3 6 3 19 10 S -
24.08.2019 19:00:00 34,6 7,6 3 2 22 12 SSE 0,0
24.08.2019 18:00:00 36,0 8,0 7 4 27 14 S 0,0
24.08.2019 17:00:00 36,3 9,0 2 1 26 14 E 0,0
24.08.2019 16:00:00 35,7 9,3 4 2 22 12 SSW 0,0
24.08.2019 15:00:00 36,1 10,3 9 5 23 12 ESE 0,0
24.08.2019 14:00:00 33,1 9,2 4 2 18 10 SSE -
24.08.2019 13:00:00 33,0 11,0 5 3 17 9 SE 0,0
24.08.2019 12:00:00 30,8 11,2 8 4 23 13 NE 0,0
24.08.2019 11:00:00 28,0 10,6 14 8 27 15 NE 0,0
24.08.2019 10:00:00 25,5 9,7 12 7 31 17 ENE 0,0
24.08.2019 09:00:00 23,5 8,0 13 7 28 15 NE 0,0
24.08.2019 08:00:00 22,5 7,1 14 7 26 14 ENE -
24.08.2019 07:00:00 22,6 6,7 12 7 40 22 ENE 0,0
24.08.2019 06:00:00 22,7 6,8 11 6 25 13 NE 0,0
24.08.2019 05:00:00 21,9 6,5 6 3 12 7 ESE 0,0
24.08.2019 04:00:00 21,4 6,1 3 2 9 5 NE 0,0
24.08.2019 03:00:00 22,4 7,0 4 2 11 6 NNE 0,0
24.08.2019 02:00:00 22,2 6,4 0 0 8 5 NNE -
24.08.2019 01:00:00 21,8 5,3 3 2 5 3 NW 0,0
24.08.2019 00:00:00 23,1 5,0 0 0 7 4 SSW 0,0
23.08.2019 23:00:00 25,2 5,9 1 1 8 5 NE 0,0
23.08.2019 22:00:00 27,3 6,1 3 2 7 4 NNW 0,0
23.08.2019 21:00:00 30,0 6,5 0 0 16 9 W 0,0
23.08.2019 20:00:00 32,0 6,2 6 4 17 9 SSE -
23.08.2019 19:00:00 33,5 7,4 4 2 20 11 S 0,0
23.08.2019 18:00:00 34,9 8,7 9 5 19 10 E 0,0
23.08.2019 17:00:00 34,0 8,5 7 4 20 11 SE 0,0
23.08.2019 16:00:00 34,0 9,9 9 5 25 14 SE 0,0
23.08.2019 15:00:00 33,3 10,0 8 4 23 12 SE 0,0
23.08.2019 14:00:00 32,6 11,2 8 4 22 12 ESE -
23.08.2019 13:00:00 31,4 10,6 9 5 21 11 ESE 0,0
23.08.2019 12:00:00 29,7 10,8 12 6 25 13 NE 0,0
23.08.2019 11:00:00 28,1 10,8 11 6 24 13 NE 0,0
23.08.2019 10:00:00 26,0 10,2 12 6 27 15 NE 0,0
23.08.2019 09:00:00 24,2 10,9 10 5 31 17 NE 0,0
23.08.2019 08:00:00 22,7 10,5 13 7 25 14 NE -
23.08.2019 07:00:00 22,9 10,0 11 6 27 15 NE 0,0
23.08.2019 06:00:00 23,8 8,3 10 5 26 14 NE 0,0
23.08.2019 05:00:00 23,6 5,5 11 6 22 12 ENE 0,0
23.08.2019 04:00:00 23,6 3,9 8 5 24 13 NE 0,0
23.08.2019 03:00:00 24,0 3,8 10 5 18 10 NE 0,0
23.08.2019 02:00:00 23,3 4,3 7 4 16 9 NNE -
23.08.2019 01:00:00 21,3 3,0 0 0 4 2 W 0,0
23.08.2019 00:00:00 23,8 3,0 0 0 11 6 SSW 0,0
22.08.2019 23:00:00 26,1 4,5 4 2 13 7 NE 0,0
22.08.2019 22:00:00 27,3 5,6 6 4 11 6 NNE 0,0
22.08.2019 21:00:00 29,5 4,8 2 1 11 6 ENE 0,0
22.08.2019 20:00:00 31,7 6,7 6 3 18 10 SE -
22.08.2019 19:00:00 33,1 7,8 7 4 21 12 S 0,0
22.08.2019 18:00:00 35,2 9,6 4 2 45 24 E 0,0
22.08.2019 17:00:00 34,8 10,6 7 4 20 11 E 0,0
22.08.2019 16:00:00 33,9 10,5 10 5 23 12 E 0,0
22.08.2019 15:00:00 33,3 11,2 5 3 27 15 SSE 0,0
22.08.2019 14:00:00 31,6 11,9 12 7 25 13 SSE -
22.08.2019 13:00:00 31,2 13,9 8 4 18 10 SE 0,0
22.08.2019 12:00:00 28,5 14,7 5 3 14 8 SE 0,0
22.08.2019 11:00:00 25,7 15,7 3 2 15 8 NNE 0,0
22.08.2019 10:00:00 23,7 16,2 8 4 18 10 NE 0,0
22.08.2019 09:00:00 20,7 15,4 10 5 25 13 ENE 0,0
22.08.2019 08:00:00 18,5 15,0 4 2 10 6 ENE -
22.08.2019 07:00:00 19,4 14,6 4 2 10 5 ENE 0,0
22.08.2019 06:00:00 19,7 14,9 4 2 13 7 NE 0,0
22.08.2019 05:00:00 18,7 13,9 2 1 7 4 NNW 0,0
22.08.2019 04:00:00 19,7 14,7 0 0 4 2 WNW 0,0
22.08.2019 03:00:00 21,2 15,1 0 0 7 4 ENE 0,0
22.08.2019 02:00:00 22,9 16,0 5 3 16 9 NE -
22.08.2019 01:00:00 23,5 16,0 10 5 25 14 ENE 0,0
22.08.2019 00:00:00 24,4 15,9 13 7 28 15 ENE 0,0
21.08.2019 23:00:00 25,2 14,0 8 5 20 11 ESE 0,0
21.08.2019 22:00:00 26,1 12,5 6 4 11 6 ENE 0,0
21.08.2019 21:00:00 27,1 12,0 3 2 13 7 E 0,0
21.08.2019 20:00:00 29,2 14,2 3 1 14 8 ESE -
21.08.2019 19:00:00 30,3 15,6 4 2 11 6 NNE 0,0
21.08.2019 18:00:00 29,1 15,3 1 1 14 7 N 0,0
21.08.2019 17:00:00 29,1 15,3 5 3 13 7 NE 0,0
21.08.2019 16:00:00 29,8 15,9 6 4 20 11 NNE 0,0
21.08.2019 15:00:00 30,2 17,0 8 4 19 11 NE 0,0
21.08.2019 14:00:00 27,1 16,4 11 6 25 14 NNE -
21.08.2019 13:00:00 27,2 16,2 10 5 22 12 NE 0,0
21.08.2019 12:00:00 25,3 16,5 12 6 23 12 NE 0,0
21.08.2019 11:00:00 24,4 16,4 9 5 26 14 ENE 0,0
21.08.2019 10:00:00 23,7 16,5 12 7 24 13 NE 0,0
21.08.2019 09:00:00 22,9 16,5 12 6 26 14 NE 0,0
21.08.2019 08:00:00 22,4 16,4 14 7 28 15 NNE -
21.08.2019 07:00:00 22,1 15,4 14 7 26 14 NE 0,0
21.08.2019 06:00:00 22,4 14,2 12 6 26 14 NE 0,0
21.08.2019 05:00:00 22,9 13,7 11 6 27 15 ENE 0,0
21.08.2019 04:00:00 23,2 13,7 14 8 32 17 NE 0,0
21.08.2019 03:00:00 22,9 13,1 13 7 31 17 ENE 0,0
21.08.2019 02:00:00 23,7 13,0 14 8 30 16 ENE -
21.08.2019 01:00:00 24,3 12,5 16 8 37 20 ENE 0,0
21.08.2019 00:00:00 25,0 11,2 21 11 42 23 ENE 0,0
20.08.2019 23:00:00 26,5 10,6 16 9 33 18 ENE 0,0
20.08.2019 22:00:00 27,6 9,9 8 4 17 9 NE 0,0
20.08.2019 21:00:00 29,2 9,8 5 3 21 12 NNE 0,0
20.08.2019 20:00:00 31,5 10,3 10 5 19 10 ENE -
20.08.2019 19:00:00 33,5 10,8 4 2 19 10 N 0,0
20.08.2019 18:00:00 33,8 10,4 3 2 20 11 NNE 0,0
20.08.2019 17:00:00 33,8 11,0 5 3 22 12 ENE 0,0
20.08.2019 16:00:00 32,8 10,2 3 2 23 12 W 0,0
20.08.2019 15:00:00 31,6 9,8 6 3 19 11 NNE 0,0
20.08.2019 14:00:00 30,0 10,5 10 5 24 13 N -
20.08.2019 13:00:00 30,0 11,0 8 5 31 17 NNE 0,0
20.08.2019 12:00:00 29,1 11,2 9 5 23 13 NNE 0,0
20.08.2019 11:00:00 28,0 12,0 9 5 22 12 NE 0,0
20.08.2019 10:00:00 25,4 11,9 11 6 23 12 ENE 0,0
20.08.2019 09:00:00 23,1 12,4 6 3 16 9 E 0,0
20.08.2019 08:00:00 20,3 10,6 4 2 9 5 N -
20.08.2019 07:00:00 20,7 9,6 1 0 7 4 W 0,0
20.08.2019 06:00:00 22,7 10,8 1 0 13 7 E 0,0
20.08.2019 05:00:00 23,5 10,5 8 5 18 10 ENE 0,0
20.08.2019 04:00:00 23,7 9,3 3 2 9 5 ENE 0,0
20.08.2019 03:00:00 24,5 8,8 5 3 10 5 ENE 0,0
20.08.2019 02:00:00 24,7 9,0 1 0 12 6 NNE -
20.08.2019 01:00:00 24,8 8,3 1 0 9 5 ENE 0,0
20.08.2019 00:00:00 25,2 8,3 1 1 8 5 NW 0,0
19.08.2019 23:00:00 26,4 7,8 5 3 8 4 NW 0,0
19.08.2019 22:00:00 27,7 7,0 2 1 15 8 WNW 0,0
19.08.2019 21:00:00 28,7 3,6 5 3 18 10 W 0,0
19.08.2019 20:00:00 30,3 0,9 4 2 17 9 WSW -
19.08.2019 19:00:00 31,2 1,5 5 3 21 11 SW 0,0
19.08.2019 18:00:00 31,6 -0,3 8 4 25 14 W 0,0
19.08.2019 17:00:00 33,3 1,1 8 5 28 15 W 0,0
19.08.2019 16:00:00 31,5 2,7 10 5 30 16 W 0,0
19.08.2019 15:00:00 31,9 5,5 8 5 25 14 SW 0,0
19.08.2019 14:00:00 30,3 9,8 9 5 25 14 SW -
19.08.2019 13:00:00 29,9 11,9 6 3 24 13 SW 0,0
19.08.2019 12:00:00 28,3 13,8 6 3 16 9 SSW 0,0
19.08.2019 11:00:00 25,9 15,3 5 3 12 7 SW 0,0
19.08.2019 10:00:00 23,3 15,3 1 0 7 4 ESE 0,0
19.08.2019 09:00:00 20,2 13,9 1 0 6 3 E 0,0
19.08.2019 08:00:00 17,8 11,8 1 1 4 2 S -
19.08.2019 07:00:00 18,2 11,6 0 0 5 3 ESE 0,0

tt = temperature
td = dewpoint
ff = wind speed
fx = gusts
dd = wind direction
rr = precipitation

Next stations